Terminal Aerodrome Forecast
Issued by NWS

Home | Current Version | Previous Version | Text Only | Print | Product List | Glossary On
Versions: 1 2 3 4 5 6 7 8 9 10 11 12 13 14 15 16 17 18 19 20 21
577
FTUS43 KTOP 201726
TAFMHK
TAF
KMHK 201726Z 2018/2118 21012KT P6SM BKN110
     FM210000 22005KT P6SM SCT250
     FM210400 31007KT P6SM FEW250=

USA.gov is the U.S. government's official web portal to all federal, state and local government web resources and services.